Time;durP1;ratioP1;P1;durP2;ratioP2;P2;SDS_P1;SDS_P2;PMS_P1;PMS_P2;Temp;Humidity;BMP_temperature;BMP_pressure;BME280_temperature;BME280_humidity;BME280_pressure;Samples;Min_cycle;Max_cycle;Signal;HPM_P1;HPM_P2
2021/06/07 00:00:17;;;;;;;;;;;17.00;86.40;;;;;;4991893;28;20374;-69
2021/06/07 00:02:43;;;;;;;;;;;17.00;86.40;;;;;;4991549;28;20302;-70
2021/06/07 00:05:09;;;;;;;;;;;16.90;86.20;;;;;;4966390;28;19918;-71
2021/06/07 00:07:35;;;;;;;;;;;16.90;86.60;;;;;;4990508;28;19918;-70
2021/06/07 00:10:00;;;;;;;;;;;16.80;86.70;;;;;;4991610;28;19918;-70
2021/06/07 00:12:26;;;;;;;;;;;16.80;87.00;;;;;;4974266;28;19917;-70
2021/06/07 00:14:51;;;;;;;;;;;16.80;87.10;;;;;;4991616;28;19949;-70
2021/06/07 00:17:17;;;;;;;;;;;16.90;87.10;;;;;;4991304;28;19944;-70
2021/06/07 00:19:43;;;;;;;;;;;16.90;87.10;;;;;;4991787;28;20301;-71
2021/06/07 00:22:08;;;;;;;;;;;16.90;87.20;;;;;;4991810;28;19918;-70
2021/06/07 00:24:34;;;;;;;;;;;16.90;87.30;;;;;;4990987;28;19925;-71
2021/06/07 00:27:00;;;;;;;;;;;16.90;87.30;;;;;;4991656;28;20389;-71
2021/06/07 00:29:26;;;;;;;;;;;16.90;87.30;;;;;;4991743;28;19918;-70
2021/06/07 00:31:51;;;;;;;;;;;16.90;87.20;;;;;;4993497;28;19918;-70
2021/06/07 00:34:17;;;;;;;;;;;16.90;87.80;;;;;;4994898;28;19917;-71
2021/06/07 00:36:42;;;;;;;;;;;16.90;87.40;;;;;;4994507;28;20004;-69
2021/06/07 00:39:09;;;;;;;;;;;16.90;87.20;;;;;;4995055;28;20460;-70
2021/06/07 00:41:35;;;;;;;;;;;16.90;87.40;;;;;;4994975;28;20370;-70
2021/06/07 00:44:02;;;;;;;;;;;16.90;87.50;;;;;;4994248;28;20018;-70
2021/06/07 00:46:28;;;;;;;;;;;16.90;87.50;;;;;;4994809;28;19944;-70
2021/06/07 00:48:54;;;;;;;;;;;16.90;87.50;;;;;;4994447;28;20428;-74
2021/06/07 00:51:20;;;;;;;;;;;16.90;87.60;;;;;;4994676;28;19944;-75
2021/06/07 00:53:46;;;;;;;;;;;16.90;87.60;;;;;;4994629;28;20016;-75
2021/06/07 00:56:12;;;;;;;;;;;16.90;87.70;;;;;;4994105;28;20008;-75
2021/06/07 00:58:41;;;;;;;;;;;16.90;87.70;;;;;;4994691;28;20450;-75
2021/06/07 01:01:11;;;;;;;;;;;16.90;87.60;;;;;;4994453;28;19964;-74
2021/06/07 01:03:37;;;;;;;;;;;16.90;87.80;;;;;;4994460;28;19918;-75
2021/06/07 01:06:03;;;;;;;;;;;16.90;87.70;;;;;;4994527;28;19953;-75
2021/06/07 01:08:29;;;;;;;;;;;16.90;87.60;;;;;;4994301;28;20374;-74
2021/06/07 01:10:55;;;;;;;;;;;16.80;87.50;;;;;;4994473;28;19924;-75
2021/06/07 01:13:22;;;;;;;;;;;16.80;87.90;;;;;;4993798;28;20007;-75
2021/06/07 01:15:50;;;;;;;;;;;16.80;87.90;;;;;;4994406;28;19951;-75
2021/06/07 01:18:16;;;;;;;;;;;16.80;88.00;;;;;;4994306;28;19957;-76
2021/06/07 01:20:42;;;;;;;;;;;16.80;87.90;;;;;;4993783;28;19957;-74
2021/06/07 01:23:07;;;;;;;;;;;16.80;87.90;;;;;;4994155;28;19917;-76
2021/06/07 01:25:37;;;;;;;;;;;16.70;87.80;;;;;;4994071;28;19925;-74
2021/06/07 01:28:03;;;;;;;;;;;16.70;88.00;;;;;;4993797;28;19932;-75
2021/06/07 01:30:30;;;;;;;;;;;16.70;88.10;;;;;;4994210;28;19941;-76
2021/06/07 01:32:56;;;;;;;;;;;16.60;88.30;;;;;;4993306;28;19918;-75
2021/06/07 01:35:22;;;;;;;;;;;16.60;88.40;;;;;;4993908;28;20337;-74
2021/06/07 01:37:49;;;;;;;;;;;16.70;88.50;;;;;;4993786;28;19972;-73
2021/06/07 01:40:19;;;;;;;;;;;16.70;88.40;;;;;;4993607;28;19924;-75
2021/06/07 01:42:45;;;;;;;;;;;16.70;88.40;;;;;;4992072;28;20298;-75
2021/06/07 01:45:11;;;;;;;;;;;16.70;88.40;;;;;;4993218;28;19917;-75
2021/06/07 01:47:37;;;;;;;;;;;16.70;88.40;;;;;;4992393;28;19929;-76
2021/06/07 01:50:05;;;;;;;;;;;16.60;88.30;;;;;;4993680;28;20302;-75
2021/06/07 01:52:30;;;;;;;;;;;16.70;88.60;;;;;;4993304;28;19949;-76
2021/06/07 01:54:56;;;;;;;;;;;16.60;88.70;;;;;;4993280;28;20394;-73
2021/06/07 01:57:22;;;;;;;;;;;16.60;88.70;;;;;;4993329;28;19961;-75
2021/06/07 01:59:47;;;;;;;;;;;16.70;88.80;;;;;;4993241;28;19960;-75
2021/06/07 02:02:13;;;;;;;;;;;16.60;88.80;;;;;;4992189;28;20049;-75
2021/06/07 02:04:38;;;;;;;;;;;16.60;88.80;;;;;;4992639;28;19953;-75
2021/06/07 02:07:04;;;;;;;;;;;16.60;88.80;;;;;;4992059;28;19918;-75
2021/06/07 02:09:29;;;;;;;;;;;16.60;88.80;;;;;;4993387;28;19918;-75
2021/06/07 02:11:55;;;;;;;;;;;16.60;88.90;;;;;;4993084;28;19925;-74
2021/06/07 02:14:21;;;;;;;;;;;16.60;89.10;;;;;;4993162;28;20259;-75
2021/06/07 02:16:46;;;;;;;;;;;16.60;89.10;;;;;;4992657;28;19928;-75
2021/06/07 02:19:12;;;;;;;;;;;16.60;88.90;;;;;;4992863;28;19922;-74
2021/06/07 02:21:38;;;;;;;;;;;16.50;89.10;;;;;;4993226;28;19917;-75
2021/06/07 02:24:05;;;;;;;;;;;16.50;89.00;;;;;;4992555;28;19921;-74
2021/06/07 02:26:31;;;;;;;;;;;16.50;89.20;;;;;;4993017;28;19922;-74
2021/06/07 02:28:58;;;;;;;;;;;16.50;89.30;;;;;;4993059;28;19925;-76
2021/06/07 02:31:24;;;;;;;;;;;16.50;89.50;;;;;;4992637;28;20286;-75
2021/06/07 02:33:51;;;;;;;;;;;16.50;89.30;;;;;;4992604;28;19921;-75
2021/06/07 02:36:17;;;;;;;;;;;16.50;89.30;;;;;;4991055;28;19922;-75
2021/06/07 02:38:44;;;;;;;;;;;16.50;89.40;;;;;;4992910;28;19968;-75
2021/06/07 02:41:09;;;;;;;;;;;16.50;89.60;;;;;;4992878;28;19924;-76
2021/06/07 02:43:35;;;;;;;;;;;16.50;89.70;;;;;;4992076;28;20386;-75
2021/06/07 02:46:01;;;;;;;;;;;16.50;89.70;;;;;;4992483;28;19922;-75
2021/06/07 02:48:26;;;;;;;;;;;16.50;89.30;;;;;;4992868;28;20409;-74
2021/06/07 02:50:52;;;;;;;;;;;16.50;89.50;;;;;;4992110;28;19929;-75
2021/06/07 02:53:17;;;;;;;;;;;16.50;89.70;;;;;;4991834;28;19924;-73
2021/06/07 02:55:45;;;;;;;;;;;16.50;89.90;;;;;;4991934;28;19922;-75
2021/06/07 02:58:11;;;;;;;;;;;16.50;89.90;;;;;;4992477;28;20375;-75
2021/06/07 03:00:39;;;;;;;;;;;16.60;89.80;;;;;;4992631;28;19925;-75
2021/06/07 03:03:06;;;;;;;;;;;16.60;89.80;;;;;;5006968;28;19961;-75
2021/06/07 03:05:31;;;;;;;;;;;16.60;89.90;;;;;;4992405;28;19977;-75
2021/06/07 03:07:57;;;;;;;;;;;16.60;89.80;;;;;;4992014;28;19941;-75
2021/06/07 03:10:23;;;;;;;;;;;16.60;89.80;;;;;;4992357;28;19934;-74
2021/06/07 03:12:48;;;;;;;;;;;16.60;89.80;;;;;;4992284;28;19918;-75
2021/06/07 03:15:15;;;;;;;;;;;16.60;89.70;;;;;;4992009;28;19918;-75
2021/06/07 03:17:41;;;;;;;;;;;16.50;89.70;;;;;;4992238;28;19918;-75
2021/06/07 03:20:09;;;;;;;;;;;16.50;89.60;;;;;;4992405;28;19964;-75
2021/06/07 03:22:34;;;;;;;;;;;16.50;90.10;;;;;;4991784;28;20013;-74
2021/06/07 03:25:00;;;;;;;;;;;16.50;89.80;;;;;;4991947;28;20005;-75
2021/06/07 03:27:26;;;;;;;;;;;16.50;90.00;;;;;;4991764;28;19965;-75
2021/06/07 03:29:51;;;;;;;;;;;16.50;90.00;;;;;;4992161;28;20005;-76
2021/06/07 03:32:17;;;;;;;;;;;16.50;90.00;;;;;;4992348;28;20398;-75
2021/06/07 03:34:42;;;;;;;;;;;16.50;90.00;;;;;;4991551;28;19918;-74
2021/06/07 03:37:08;;;;;;;;;;;16.50;90.10;;;;;;4992348;28;19957;-74
2021/06/07 03:39:33;;;;;;;;;;;16.50;90.00;;;;;;4992299;28;19925;-75
2021/06/07 03:41:59;;;;;;;;;;;16.50;90.00;;;;;;4991768;28;19918;-75
2021/06/07 03:44:25;;;;;;;;;;;16.50;90.00;;;;;;4992030;28;19964;-75
2021/06/07 03:46:50;;;;;;;;;;;16.50;90.10;;;;;;5027566;23;20058;-67
2021/06/07 03:49:16;;;;;;;;;;;16.50;90.00;;;;;;5070180;28;19967;-67
2021/06/07 03:51:42;;;;;;;;;;;16.60;90.00;;;;;;5071481;28;20390;-67
2021/06/07 03:54:08;;;;;;;;;;;16.50;90.00;;;;;;5069626;28;19927;-66
2021/06/07 03:56:34;;;;;;;;;;;16.50;90.10;;;;;;5074445;28;19930;-65
2021/06/07 03:58:59;;;;;;;;;;;16.60;90.10;;;;;;5089895;28;19995;-66
2021/06/07 04:01:25;;;;;;;;;;;16.50;90.00;;;;;;5090235;28;19940;-66
2021/06/07 04:03:50;;;;;;;;;;;16.50;90.00;;;;;;5091253;28;20432;-66
2021/06/07 04:06:16;;;;;;;;;;;16.60;90.10;;;;;;5094233;28;19923;-65
2021/06/07 04:08:42;;;;;;;;;;;16.50;90.00;;;;;;5094073;28;19951;-66
2021/06/07 04:11:10;;;;;;;;;;;16.50;90.00;;;;;;5094080;28;19919;-66
2021/06/07 04:13:36;;;;;;;;;;;16.50;90.20;;;;;;5094595;28;19916;-66
2021/06/07 04:16:01;;;;;;;;;;;16.50;90.30;;;;;;5093791;28;19927;-66
2021/06/07 04:18:27;;;;;;;;;;;16.60;90.20;;;;;;5093403;28;19936;-67
2021/06/07 04:20:53;;;;;;;;;;;16.60;90.20;;;;;;5075982;28;19927;-66
2021/06/07 04:23:18;;;;;;;;;;;16.60;90.30;;;;;;5073988;28;20399;-65
2021/06/07 04:25:44;;;;;;;;;;;16.60;90.20;;;;;;5074195;28;19916;-66
2021/06/07 04:28:09;;;;;;;;;;;16.60;90.50;;;;;;5056651;28;20287;-65
2021/06/07 04:30:35;;;;;;;;;;;16.60;90.20;;;;;;5074584;28;19999;-65
2021/06/07 04:33:01;;;;;;;;;;;16.60;90.20;;;;;;5072598;28;19916;-65
2021/06/07 04:35:27;;;;;;;;;;;16.70;90.30;;;;;;5074636;28;19920;-66
2021/06/07 04:37:53;;;;;;;;;;;16.70;90.30;;;;;;5077661;28;19966;-66
2021/06/07 04:40:23;;;;;;;;;;;16.70;90.40;;;;;;5084370;28;19924;-66
2021/06/07 04:42:49;;;;;;;;;;;16.80;90.40;;;;;;5074162;28;20380;-66
2021/06/07 04:45:15;;;;;;;;;;;16.90;90.20;;;;;;5073793;28;19924;-66
2021/06/07 04:47:41;;;;;;;;;;;16.90;90.20;;;;;;5094195;28;19920;-65
2021/06/07 04:50:07;;;;;;;;;;;16.90;90.20;;;;;;5092599;28;19939;-65
2021/06/07 04:52:56;;;;;;;;;;;16.90;90.30;;;;;;5088278;28;19916;-65
2021/06/07 04:55:23;;;;;;;;;;;17.00;90.30;;;;;;5070980;28;19916;-65
2021/06/07 04:57:48;;;;;;;;;;;17.00;90.30;;;;;;5073436;28;19916;-65
2021/06/07 05:00:14;;;;;;;;;;;17.10;90.30;;;;;;5077913;28;19920;-65
2021/06/07 05:02:40;;;;;;;;;;;17.10;90.20;;;;;;5092236;28;19923;-66
2021/06/07 05:05:05;;;;;;;;;;;17.20;90.20;;;;;;5075035;28;19912;-67
2021/06/07 05:07:31;;;;;;;;;;;17.20;90.20;;;;;;5064398;28;20364;-68
2021/06/07 05:09:58;;;;;;;;;;;17.20;90.20;;;;;;5075003;28;19916;-67
2021/06/07 05:12:23;;;;;;;;;;;17.30;90.20;;;;;;5083263;28;19916;-66
2021/06/07 05:14:49;;;;;;;;;;;17.30;90.20;;;;;;5072764;28;19962;-67
2021/06/07 05:17:14;;;;;;;;;;;17.40;90.20;;;;;;5071202;28;19981;-68
2021/06/07 05:19:40;;;;;;;;;;;17.40;90.10;;;;;;5072334;28;19921;-69
2021/06/07 05:22:05;;;;;;;;;;;17.40;90.00;;;;;;5055337;28;19920;-66
2021/06/07 05:24:31;;;;;;;;;;;17.50;89.90;;;;;;5075199;28;20256;-65
2021/06/07 05:26:57;;;;;;;;;;;17.40;89.80;;;;;;5073926;28;20403;-65
2021/06/07 05:29:22;;;;;;;;;;;17.40;90.00;;;;;;5070124;28;19916;-65
2021/06/07 05:31:48;;;;;;;;;;;17.40;90.10;;;;;;5071651;28;19917;-65
2021/06/07 05:34:13;;;;;;;;;;;17.50;90.10;;;;;;5071372;28;19916;-66
2021/06/07 05:36:39;;;;;;;;;;;17.50;89.90;;;;;;5071917;28;19920;-65
2021/06/07 05:39:04;;;;;;;;;;;17.50;90.00;;;;;;5081662;28;19965;-66
2021/06/07 05:41:30;;;;;;;;;;;17.60;89.90;;;;;;5081151;28;20020;-66
2021/06/07 05:43:55;;;;;;;;;;;17.60;89.70;;;;;;5081773;28;19916;-66
2021/06/07 05:46:22;;;;;;;;;;;17.60;89.60;;;;;;5081021;28;19924;-65
2021/06/07 05:48:48;;;;;;;;;;;17.60;89.60;;;;;;5081033;28;20440;-66
2021/06/07 05:51:14;;;;;;;;;;;17.60;89.20;;;;;;5083604;28;19916;-66
2021/06/07 05:53:39;;;;;;;;;;;17.60;89.10;;;;;;5080355;28;20371;-66
2021/06/07 05:56:05;;;;;;;;;;;17.50;89.00;;;;;;5063162;28;19935;-66
2021/06/07 05:58:30;;;;;;;;;;;17.50;89.10;;;;;;5083344;28;19920;-66
2021/06/07 06:00:56;;;;;;;;;;;17.50;89.30;;;;;;5081945;28;19923;-66
2021/06/07 06:03:22;;;;;;;;;;;17.50;89.20;;;;;;5079657;28;19936;-66
2021/06/07 06:05:47;;;;;;;;;;;17.50;89.30;;;;;;5083289;28;20287;-66
2021/06/07 06:08:13;;;;;;;;;;;17.50;89.10;;;;;;5063386;28;20285;-66
2021/06/07 06:10:39;;;;;;;;;;;17.60;89.30;;;;;;5081576;28;20450;-66
2021/06/07 06:13:05;;;;;;;;;;;17.60;89.20;;;;;;5082729;28;19966;-66
2021/06/07 06:15:30;;;;;;;;;;;17.60;89.20;;;;;;5062773;28;19954;-66
2021/06/07 06:17:56;;;;;;;;;;;17.80;89.00;;;;;;5081756;28;20202;-66
2021/06/07 06:20:25;;;;;;;;;;;17.80;88.90;;;;;;5052445;28;19963;-64
2021/06/07 06:22:51;;;;;;;;;;;17.90;89.00;;;;;;5073605;28;19924;-68
2021/06/07 06:25:17;;;;;;;;;;;17.90;89.00;;;;;;5079387;28;19920;-64
2021/06/07 06:27:43;;;;;;;;;;;17.90;88.70;;;;;;5080006;28;19932;-67
2021/06/07 06:30:11;;;;;;;;;;;17.90;88.80;;;;;;5082624;28;19931;-65
2021/06/07 06:32:37;;;;;;;;;;;18.00;88.70;;;;;;5081752;28;20167;-64
2021/06/07 06:35:03;;;;;;;;;;;18.00;88.70;;;;;;5079229;28;19998;-65
2021/06/07 06:37:29;;;;;;;;;;;18.10;88.60;;;;;;5082160;27;19924;-65
2021/06/07 06:39:54;;;;;;;;;;;18.00;88.40;;;;;;5081178;28;19917;-65
2021/06/07 06:42:20;;;;;;;;;;;18.10;88.20;;;;;;5070749;28;19920;-65
2021/06/07 06:44:46;;;;;;;;;;;18.10;88.20;;;;;;5073581;28;19961;-65
2021/06/07 06:47:11;;;;;;;;;;;18.10;88.40;;;;;;5090181;28;19927;-64
2021/06/07 06:49:37;;;;;;;;;;;18.20;87.80;;;;;;5091925;28;19916;-65
2021/06/07 06:52:03;;;;;;;;;;;18.20;87.70;;;;;;5073418;28;20006;-65
2021/06/07 06:54:28;;;;;;;;;;;18.20;87.60;;;;;;5091594;28;19927;-65
2021/06/07 06:56:54;;;;;;;;;;;18.20;87.70;;;;;;5091785;28;20007;-67
2021/06/07 06:59:20;;;;;;;;;;;18.20;87.30;;;;;;5089480;28;23071;-65
2021/06/07 07:01:46;;;;;;;;;;;18.20;87.20;;;;;;5091873;28;19994;-65
2021/06/07 07:04:12;;;;;;;;;;;18.20;87.50;;;;;;5091541;28;19916;-66
2021/06/07 07:06:37;;;;;;;;;;;18.20;87.20;;;;;;5091322;28;20021;-65
2021/06/07 07:09:06;;;;;;;;;;;18.30;87.60;;;;;;5091922;28;19923;-65
2021/06/07 07:11:31;;;;;;;;;;;18.50;87.70;;;;;;5089225;28;19945;-65
2021/06/07 07:13:57;;;;;;;;;;;18.60;87.40;;;;;;5089257;28;20396;-66
2021/06/07 07:16:23;;;;;;;;;;;18.70;86.90;;;;;;5090021;28;19935;-66
2021/06/07 07:18:48;;;;;;;;;;;18.70;86.60;;;;;;5091172;28;20410;-66
2021/06/07 07:21:14;;;;;;;;;;;18.70;86.20;;;;;;5091441;28;20391;-65
2021/06/07 07:23:40;;;;;;;;;;;18.60;85.80;;;;;;5071104;28;20303;-68
2021/06/07 07:26:05;;;;;;;;;;;18.50;85.80;;;;;;5091458;28;19916;-67
2021/06/07 07:28:31;;;;;;;;;;;18.50;85.90;;;;;;5091394;28;19916;-68
2021/06/07 07:30:57;;;;;;;;;;;18.50;85.80;;;;;;5089564;28;19916;-68
2021/06/07 07:33:23;;;;;;;;;;;18.50;85.90;;;;;;5089949;28;19959;-67
2021/06/07 07:35:49;;;;;;;;;;;18.50;86.20;;;;;;5091436;28;20613;-68
2021/06/07 07:38:15;;;;;;;;;;;18.60;86.40;;;;;;5090869;28;20385;-67
2021/06/07 07:40:42;;;;;;;;;;;18.70;86.30;;;;;;5093770;28;19923;-67
2021/06/07 07:43:08;;;;;;;;;;;18.80;86.10;;;;;;5093322;28;19913;-68
2021/06/07 07:45:34;;;;;;;;;;;18.90;85.80;;;;;;5094778;28;20379;-65
2021/06/07 07:48:01;;;;;;;;;;;19.00;85.40;;;;;;5094827;28;19928;-64
2021/06/07 07:50:27;;;;;;;;;;;19.10;85.40;;;;;;5093786;28;19920;-66
2021/06/07 07:52:54;;;;;;;;;;;19.20;85.50;;;;;;5093886;28;19924;-66
2021/06/07 07:55:21;;;;;;;;;;;19.30;85.50;;;;;;5094764;28;20310;-66
2021/06/07 07:57:47;;;;;;;;;;;19.50;85.50;;;;;;5093487;28;19931;-65
2021/06/07 08:00:13;;;;;;;;;;;19.70;85.10;;;;;;5095280;28;20290;-67
2021/06/07 08:02:41;;;;;;;;;;;19.90;84.90;;;;;;5093515;28;19916;-67
2021/06/07 08:05:07;;;;;;;;;;;20.10;84.50;;;;;;5094911;28;19916;-67
2021/06/07 08:07:33;;;;;;;;;;;20.30;84.10;;;;;;5094776;28;20391;-67
2021/06/07 08:09:59;;;;;;;;;;;20.40;83.40;;;;;;5094410;28;19963;-67
2021/06/07 08:12:25;;;;;;;;;;;20.50;82.60;;;;;;5094901;28;19951;-67
2021/06/07 08:14:50;;;;;;;;;;;20.50;82.40;;;;;;5094078;28;19976;-67
2021/06/07 08:17:16;;;;;;;;;;;20.60;82.40;;;;;;5093215;28;20380;-67
2021/06/07 08:19:42;;;;;;;;;;;20.70;82.10;;;;;;5093467;28;19924;-66
2021/06/07 08:22:08;;;;;;;;;;;20.90;81.80;;;;;;5093322;28;19927;-67
2021/06/07 08:24:34;;;;;;;;;;;21.00;81.60;;;;;;5092716;28;19927;-67
2021/06/07 08:26:59;;;;;;;;;;;21.10;80.80;;;;;;5093392;28;19916;-68
2021/06/07 08:29:25;;;;;;;;;;;21.30;80.60;;;;;;5094408;28;19963;-66
2021/06/07 08:31:51;;;;;;;;;;;21.40;80.10;;;;;;5094656;28;19916;-67
2021/06/07 08:34:16;;;;;;;;;;;21.50;79.50;;;;;;5093027;28;20292;-66
2021/06/07 08:36:42;;;;;;;;;;;21.70;79.60;;;;;;5093714;28;19935;-67
2021/06/07 08:39:11;;;;;;;;;;;21.90;79.50;;;;;;5094036;28;19923;-67
2021/06/07 08:41:37;;;;;;;;;;;22.30;78.90;;;;;;5093335;28;19920;-67
2021/06/07 08:44:03;;;;;;;;;;;22.40;77.70;;;;;;5093394;28;20462;-67
2021/06/07 08:46:29;;;;;;;;;;;22.60;77.10;;;;;;5093636;28;20388;-67
2021/06/07 08:48:54;;;;;;;;;;;22.70;76.20;;;;;;5093571;28;19932;-67
2021/06/07 08:51:20;;;;;;;;;;;23.00;76.50;;;;;;5092439;28;19920;-68
2021/06/07 08:53:47;;;;;;;;;;;23.60;76.30;;;;;;5092350;28;19920;-70
2021/06/07 08:56:13;;;;;;;;;;;24.10;75.00;;;;;;5092174;28;19930;-67
2021/06/07 08:58:39;;;;;;;;;;;24.40;73.80;;;;;;5093606;28;19920;-67
2021/06/07 09:01:05;;;;;;;;;;;24.40;72.50;;;;;;5092970;28;19924;-67
2021/06/07 09:03:31;;;;;;;;;;;24.40;71.80;;;;;;5092794;28;20007;-67
2021/06/07 09:05:58;;;;;;;;;;;24.30;70.80;;;;;;5092838;28;19961;-69
2021/06/07 09:08:25;;;;;;;;;;;24.30;70.20;;;;;;5093170;28;19920;-67
2021/06/07 09:10:52;;;;;;;;;;;24.50;70.70;;;;;;5092144;28;20284;-67
2021/06/07 09:13:20;;;;;;;;;;;25.20;72.20;;;;;;5091725;28;19954;-66
2021/06/07 09:15:49;;;;;;;;;;;26.10;71.80;;;;;;5093723;28;19963;-69
2021/06/07 09:18:35;;;;;;;;;;;26.60;69.20;;;;;;5091894;28;20287;-69
2021/06/07 09:21:13;;;;;;;;;;;26.70;66.40;;;;;;5092985;28;19969;-70
2021/06/07 09:23:46;;;;;;;;;;;26.40;64.90;;;;;;5091814;28;19958;-69
2021/06/07 09:26:32;;;;;;;;;;;26.00;63.70;;;;;;5093598;28;20317;-69
2021/06/07 09:28:58;;;;;;;;;;;25.50;63.40;;;;;;5093257;28;20449;-69
2021/06/07 09:31:35;;;;;;;;;;;24.90;63.30;;;;;;5092098;28;20288;-70
2021/06/07 09:34:04;;;;;;;;;;;24.50;63.80;;;;;;5091420;28;19916;-69
2021/06/07 09:36:30;;;;;;;;;;;24.10;64.10;;;;;;5093206;28;19969;-70
2021/06/07 09:39:03;;;;;;;;;;;23.80;63.80;;;;;;5091994;28;20269;-69
2021/06/07 09:41:33;;;;;;;;;;;23.50;64.50;;;;;;5092914;28;19920;-69
2021/06/07 09:44:00;;;;;;;;;;;23.40;65.40;;;;;;5092866;28;20014;-69
2021/06/07 09:46:30;;;;;;;;;;;23.50;65.80;;;;;;5092591;28;19916;-69
2021/06/07 09:49:09;;;;;;;;;;;23.60;65.70;;;;;;5093356;28;19973;-64
2021/06/07 09:51:35;;;;;;;;;;;23.60;65.50;;;;;;5092550;28;20352;-64
2021/06/07 09:54:02;;;;;;;;;;;23.80;66.40;;;;;;5092256;28;20003;-64
2021/06/07 09:56:27;;;;;;;;;;;24.20;66.60;;;;;;5092081;28;19970;-62
2021/06/07 09:58:53;;;;;;;;;;;24.60;66.10;;;;;;5091612;28;19920;-63
2021/06/07 10:01:20;;;;;;;;;;;24.80;65.30;;;;;;5091095;28;20291;-62
2021/06/07 10:03:53;;;;;;;;;;;25.00;64.90;;;;;;5090324;28;19966;-65
2021/06/07 10:06:19;;;;;;;;;;;25.10;64.50;;;;;;5092421;28;19944;-65
2021/06/07 10:08:48;;;;;;;;;;;25.40;64.30;;;;;;5090907;28;19956;-66
2021/06/07 10:11:16;;;;;;;;;;;25.60;62.90;;;;;;5092745;28;19930;-65
2021/06/07 10:13:42;;;;;;;;;;;25.80;62.80;;;;;;5090504;28;20003;-66
2021/06/07 10:16:11;;;;;;;;;;;27.10;65.70;;;;;;5088768;28;20006;-65
2021/06/07 10:18:37;;;;;;;;;;;28.50;64.50;;;;;;5091903;28;20007;-65
2021/06/07 10:21:04;;;;;;;;;;;29.00;61.10;;;;;;5091913;28;19920;-66
2021/06/07 10:23:31;;;;;;;;;;;28.80;58.20;;;;;;5092154;28;19939;-65
2021/06/07 10:25:59;;;;;;;;;;;28.00;55.70;;;;;;5092459;28;20386;-65
2021/06/07 10:28:26;;;;;;;;;;;27.20;55.80;;;;;;5092082;28;19923;-65
2021/06/07 10:30:51;;;;;;;;;;;26.40;56.60;;;;;;5092291;28;20551;-66
2021/06/07 10:33:23;;;;;;;;;;;25.80;57.70;;;;;;5073394;28;19916;-65
2021/06/07 10:35:49;;;;;;;;;;;25.70;58.70;;;;;;5077619;28;19925;-65
2021/06/07 10:38:26;;;;;;;;;;;26.20;59.80;;;;;;5074674;28;19936;-64
2021/06/07 10:40:53;;;;;;;;;;;26.50;58.60;;;;;;5089555;28;19920;-65
2021/06/07 10:43:18;;;;;;;;;;;27.20;59.80;;;;;;5090876;28;19916;-65
2021/06/07 10:45:45;;;;;;;;;;;28.10;59.80;;;;;;5089063;28;20330;-66
2021/06/07 10:48:11;;;;;;;;;;;28.50;57.30;;;;;;5085096;28;19928;-66
2021/06/07 10:50:40;;;;;;;;;;;28.60;55.60;;;;;;5088997;28;19923;-65
2021/06/07 10:53:06;;;;;;;;;;;28.40;54.20;;;;;;5075560;28;19912;-65
2021/06/07 10:55:31;;;;;;;;;;;28.80;55.90;;;;;;5082855;28;19916;-66
2021/06/07 10:58:01;;;;;;;;;;;30.40;57.00;;;;;;5068353;28;19916;-67
2021/06/07 11:00:27;;;;;;;;;;;32.10;55.50;;;;;;5069090;28;19982;-66
2021/06/07 11:02:54;;;;;;;;;;;33.90;53.20;;;;;;5075425;28;20393;-66
2021/06/07 11:05:24;;;;;;;;;;;35.80;51.10;;;;;;5069969;28;20007;-66
2021/06/07 11:08:08;;;;;;;;;;;37.20;48.70;;;;;;5074519;28;19928;-65
2021/06/07 11:10:36;;;;;;;;;;;37.40;45.20;;;;;;5090520;28;19994;-66
2021/06/07 11:13:04;;;;;;;;;;;36.80;43.00;;;;;;5080245;28;19920;-66
2021/06/07 11:15:30;;;;;;;;;;;37.30;43.00;;;;;;5077358;28;20367;-66
2021/06/07 11:18:14;;;;;;;;;;;37.50;41.10;;;;;;5081487;28;19924;-66
2021/06/07 11:20:40;;;;;;;;;;;36.50;38.40;;;;;;5086707;28;19942;-65
2021/06/07 11:23:07;;;;;;;;;;;35.00;38.80;;;;;;5062753;28;19920;-65
2021/06/07 11:25:49;;;;;;;;;;;34.10;40.10;;;;;;5080806;28;19916;-67
2021/06/07 11:28:28;;;;;;;;;;;34.00;41.40;;;;;;5086746;28;19915;-66
2021/06/07 11:30:54;;;;;;;;;;;34.60;41.10;;;;;;5076704;28;19926;-67
2021/06/07 11:33:20;;;;;;;;;;;35.10;40.90;;;;;;5103592;28;19916;-66
2021/06/07 11:35:46;;;;;;;;;;;35.60;40.50;;;;;;5102000;28;19924;-66
2021/06/07 11:38:27;;;;;;;;;;;35.60;39.70;;;;;;5102369;28;19928;-66
2021/06/07 11:40:53;;;;;;;;;;;35.20;38.90;;;;;;5085601;28;19920;-66
2021/06/07 11:43:38;;;;;;;;;;;34.50;38.40;;;;;;5101510;28;20367;-66
2021/06/07 11:46:04;;;;;;;;;;;33.90;38.90;;;;;;5111346;28;19994;-67
2021/06/07 11:48:48;;;;;;;;;;;33.70;39.60;;;;;;5075926;28;19950;-67
2021/06/07 11:51:31;;;;;;;;;;;33.30;39.00;;;;;;5111087;28;19920;-67
2021/06/07 11:53:57;;;;;;;;;;;32.90;39.00;;;;;;5111029;28;19954;-66
2021/06/07 11:56:23;;;;;;;;;;;33.00;39.50;;;;;;5093256;28;20379;-65
2021/06/07 11:58:48;;;;;;;;;;;32.70;38.80;;;;;;5092861;28;20003;-68
2021/06/07 12:01:14;;;;;;;;;;;32.30;38.90;;;;;;5111067;28;19920;-67
2021/06/07 12:03:42;;;;;;;;;;;31.70;39.40;;;;;;5076389;28;19916;-66
2021/06/07 12:06:08;;;;;;;;;;;31.00;39.70;;;;;;5075805;28;20202;-66
2021/06/07 12:08:34;;;;;;;;;;;30.30;39.90;;;;;;5111471;28;19916;-66
2021/06/07 12:11:01;;;;;;;;;;;29.70;41.10;;;;;;5092714;28;20400;-66
2021/06/07 12:13:56;;;;;;;;;;;29.50;42.10;;;;;;5108401;28;19969;-67
2021/06/07 12:16:21;;;;;;;;;;;29.50;42.30;;;;;;5096230;28;19928;-66
2021/06/07 12:18:52;;;;;;;;;;;29.40;42.20;;;;;;5110906;28;19916;-65
2021/06/07 12:21:19;;;;;;;;;;;29.20;42.80;;;;;;5092589;28;19962;-65
2021/06/07 12:29:34;;;;;;;;;;;29.20;43.00;;;;;;5114727;28;19952;-66
2021/06/07 12:32:05;;;;;;;;;;;29.20;43.10;;;;;;5114983;28;19919;-65
2021/06/07 12:34:31;;;;;;;;;;;29.10;43.00;;;;;;5096337;28;19919;-66
2021/06/07 12:36:56;;;;;;;;;;;29.10;43.00;;;;;;5114282;28;19927;-66
2021/06/07 12:39:23;;;;;;;;;;;28.90;42.80;;;;;;5115091;28;19974;-65
2021/06/07 12:41:48;;;;;;;;;;;28.80;43.30;;;;;;5095974;28;20407;-66
2021/06/07 12:44:20;;;;;;;;;;;28.80;43.30;;;;;;5114706;28;19951;-65
2021/06/07 12:46:49;;;;;;;;;;;28.80;43.70;;;;;;5114551;28;20330;-64
2021/06/07 12:49:30;;;;;;;;;;;28.80;44.00;;;;;;5111337;28;20015;-65
2021/06/07 12:51:59;;;;;;;;;;;28.90;44.00;;;;;;5083501;28;19938;-65
2021/06/07 12:54:27;;;;;;;;;;;28.80;44.20;;;;;;5100316;28;20006;-65
2021/06/07 12:56:53;;;;;;;;;;;28.70;43.80;;;;;;5090895;28;19924;-65
2021/06/07 12:59:26;;;;;;;;;;;28.40;44.40;;;;;;5100101;28;19923;-66
2021/06/07 13:01:52;;;;;;;;;;;28.40;44.70;;;;;;5101564;28;19920;-66
2021/06/07 13:04:28;;;;;;;;;;;28.20;44.40;;;;;;5103488;28;20302;-65
2021/06/07 13:06:54;;;;;;;;;;;28.00;44.80;;;;;;5102467;28;19916;-65
2021/06/07 13:09:36;;;;;;;;;;;28.00;45.20;;;;;;5102088;28;19955;-66
2021/06/07 13:12:02;;;;;;;;;;;28.00;45.50;;;;;;5083613;28;19919;-65
2021/06/07 13:14:28;;;;;;;;;;;27.90;45.60;;;;;;5104801;28;20387;-65
2021/06/07 13:16:56;;;;;;;;;;;27.90;46.20;;;;;;5101838;28;19967;-65
2021/06/07 13:19:31;;;;;;;;;;;27.80;46.50;;;;;;5085226;28;19927;-66
2021/06/07 13:21:58;;;;;;;;;;;27.90;46.70;;;;;;5100586;28;19916;-65
2021/06/07 13:24:24;;;;;;;;;;;27.90;46.60;;;;;;5088062;28;19950;-66
2021/06/07 13:26:51;;;;;;;;;;;27.90;46.70;;;;;;5079932;28;19954;-65
2021/06/07 13:29:22;;;;;;;;;;;27.90;46.80;;;;;;5058800;28;19917;-65
2021/06/07 13:31:54;;;;;;;;;;;27.80;47.00;;;;;;5062236;28;20398;-65
2021/06/07 13:34:27;;;;;;;;;;;27.70;46.70;;;;;;5078902;28;19920;-65
2021/06/07 13:37:07;;;;;;;;;;;27.50;46.70;;;;;;5091935;28;19924;-64
2021/06/07 13:39:33;;;;;;;;;;;27.20;47.10;;;;;;5108503;28;19916;-66
2021/06/07 13:41:59;;;;;;;;;;;26.80;47.20;;;;;;5110216;28;20368;-67
2021/06/07 13:44:26;;;;;;;;;;;26.60;48.00;;;;;;5098666;28;19915;-67
2021/06/07 13:47:02;;;;;;;;;;;26.50;48.40;;;;;;5102437;28;19920;-67
2021/06/07 13:49:28;;;;;;;;;;;26.40;48.40;;;;;;5089321;28;19923;-67
2021/06/07 13:51:53;;;;;;;;;;;26.30;48.90;;;;;;5077943;28;19913;-64
2021/06/07 13:54:19;;;;;;;;;;;26.30;49.00;;;;;;5106905;28;19935;-66
2021/06/07 13:56:44;;;;;;;;;;;26.10;49.30;;;;;;5100775;28;20340;-65
2021/06/07 13:59:21;;;;;;;;;;;26.10;49.70;;;;;;5099585;28;20375;-66
2021/06/07 14:01:47;;;;;;;;;;;26.00;50.30;;;;;;5108583;28;19916;-66
2021/06/07 14:04:12;;;;;;;;;;;26.10;50.60;;;;;;5078635;28;20376;-65
2021/06/07 14:06:38;;;;;;;;;;;26.20;50.70;;;;;;5104453;28;19923;-66
2021/06/07 14:09:07;;;;;;;;;;;26.20;50.50;;;;;;5104012;28;19969;-65
2021/06/07 14:11:32;;;;;;;;;;;26.20;50.70;;;;;;5078508;28;19912;-65
2021/06/07 14:13:58;;;;;;;;;;;26.20;50.70;;;;;;5085213;28;19935;-65
2021/06/07 14:16:25;;;;;;;;;;;26.20;51.00;;;;;;5073250;28;19932;-65
2021/06/07 14:18:54;;;;;;;;;;;26.20;51.00;;;;;;5092708;28;19948;-65
2021/06/07 14:21:26;;;;;;;;;;;26.10;50.90;;;;;;5111905;28;19920;-64